Time;durP1;ratioP1;P1;durP2;ratioP2;P2;SDS_P1;SDS_P2;PMS_P1;PMS_P2;Temp;Humidity;BMP_temperature;BMP_pressure;BME280_temperature;BME280_humidity;BME280_pressure;Samples;Min_cycle;Max_cycle;Signal;HPM_P1;HPM_P2
2023/02/20 00:02:42;;;;;;;20.25;12.45;;;;;;;;;;5053591;28;20028;-76
2023/02/20 00:05:28;;;;;;;20.02;12.50;;;;;;;;;;5054040;28;20021;-78
2023/02/20 00:08:13;;;;;;;21.73;12.60;;;;;;;;;;5054493;28;20020;-77
2023/02/20 00:10:59;;;;;;;18.23;12.05;;;;;;;;;;5053969;28;20021;-77
2023/02/20 00:13:45;;;;;;;19.75;12.98;;;;;;;;;;5053946;28;20031;-79
2023/02/20 00:16:31;;;;;;;19.02;12.95;;;;;;;;;;5054873;28;20029;-78
2023/02/20 00:19:17;;;;;;;19.83;12.18;;;;;;;;;;5053734;28;20028;-79
2023/02/20 00:22:02;;;;;;;18.83;12.93;;;;;;;;;;5053823;28;20471;-78
2023/02/20 00:24:48;;;;;;;21.65;12.40;;;;;;;;;;5053043;28;20017;-77
2023/02/20 00:27:33;;;;;;;18.30;12.13;;;;;;;;;;5053732;28;20110;-78
2023/02/20 00:30:21;;;;;;;18.98;12.25;;;;;;;;;;5052935;28;20017;-78
2023/02/20 00:33:06;;;;;;;20.75;12.45;;;;;;;;;;5054306;28;20060;-78
2023/02/20 00:35:52;;;;;;;21.67;13.20;;;;;;;;;;5055192;28;20108;-78
2023/02/20 00:38:37;;;;;;;18.85;11.98;;;;;;;;;;5066423;28;20017;-75
2023/02/20 00:41:23;;;;;;;19.98;12.50;;;;;;;;;;5068744;28;20009;-77
2023/02/20 00:44:10;;;;;;;18.58;12.38;;;;;;;;;;5074809;28;20049;-78
2023/02/20 00:46:55;;;;;;;18.00;11.98;;;;;;;;;;5076420;28;20055;-78
2023/02/20 00:49:41;;;;;;;21.65;12.85;;;;;;;;;;5078305;28;20088;-77
2023/02/20 00:52:26;;;;;;;17.77;12.07;;;;;;;;;;5058791;28;20099;-78
2023/02/20 00:55:12;;;;;;;18.95;12.15;;;;;;;;;;5075833;28;20021;-78
2023/02/20 00:57:57;;;;;;;18.38;12.20;;;;;;;;;;5075049;28;20128;-76
2023/02/20 01:00:43;;;;;;;19.25;12.02;;;;;;;;;;5069952;28;20020;-79
2023/02/20 01:03:29;;;;;;;22.13;12.68;;;;;;;;;;5060190;28;20025;-78
2023/02/20 01:06:14;;;;;;;17.48;11.75;;;;;;;;;;5067857;28;20028;-79
2023/02/20 01:09:00;;;;;;;18.40;11.55;;;;;;;;;;5058853;28;20041;-79
2023/02/20 01:11:45;;;;;;;18.65;13.13;;;;;;;;;;5060797;28;20029;-79
2023/02/20 01:14:31;;;;;;;19.17;11.80;;;;;;;;;;5058974;28;20043;-79
2023/02/20 01:17:17;;;;;;;18.23;11.82;;;;;;;;;;5058383;28;20094;-78
2023/02/20 01:20:03;;;;;;;18.63;11.82;;;;;;;;;;5056627;28;20075;-78
2023/02/20 01:22:48;;;;;;;18.83;11.40;;;;;;;;;;5058407;28;20013;-78
2023/02/20 01:25:34;;;;;;;21.98;11.48;;;;;;;;;;5056623;28;20024;-78
2023/02/20 01:28:19;;;;;;;19.30;11.82;;;;;;;;;;5057130;28;20434;-78
2023/02/20 01:31:06;;;;;;;17.33;11.90;;;;;;;;;;5059331;28;20025;-78
2023/02/20 01:33:51;;;;;;;18.50;11.88;;;;;;;;;;5063573;28;20063;-77
2023/02/20 01:36:37;;;;;;;18.30;11.63;;;;;;;;;;5060572;28;20039;-78
2023/02/20 01:39:24;;;;;;;17.45;11.75;;;;;;;;;;5061579;28;20021;-77
2023/02/20 01:42:12;;;;;;;19.63;11.90;;;;;;;;;;5060730;28;20021;-77
2023/02/20 01:45:14;;;;;;;17.15;11.27;;;;;;;;;;5059043;28;20024;-77
2023/02/20 01:48:00;;;;;;;18.42;11.70;;;;;;;;;;5057936;28;20021;-78
2023/02/20 01:50:46;;;;;;;17.48;11.75;;;;;;;;;;5056593;28;20112;-78
2023/02/20 01:53:31;;;;;;;19.17;12.40;;;;;;;;;;5057620;28;20037;-77
2023/02/20 01:56:17;;;;;;;17.65;12.02;;;;;;;;;;5057936;28;20064;-77
2023/02/20 01:59:04;;;;;;;19.30;12.52;;;;;;;;;;5057421;28;20108;-79
2023/02/20 02:01:49;;;;;;;21.48;12.60;;;;;;;;;;5056961;28;20349;-78
2023/02/20 02:04:36;;;;;;;18.70;11.43;;;;;;;;;;5056545;28;20036;-77
2023/02/20 02:07:22;;;;;;;20.08;12.20;;;;;;;;;;5055665;28;20017;-79
2023/02/20 02:10:16;;;;;;;21.58;12.85;;;;;;;;;;5057119;28;20040;-79
2023/02/20 02:13:02;;;;;;;22.08;11.73;;;;;;;;;;5056919;28;20086;-79
2023/02/20 02:15:52;;;;;;;17.88;11.80;;;;;;;;;;5056999;28;20029;-79
2023/02/20 02:18:43;;;;;;;21.90;13.13;;;;;;;;;;5056200;28;20434;-79
2023/02/20 02:21:51;;;;;;;20.55;13.07;;;;;;;;;;5055777;28;20091;-79
2023/02/20 02:24:56;;;;;;;21.00;12.27;;;;;;;;;;5055677;28;20040;-80
2023/02/20 02:27:57;;;;;;;17.88;11.23;;;;;;;;;;5057711;28;20024;-78
2023/02/20 02:31:01;;;;;;;19.13;10.90;;;;;;;;;;5057942;28;20085;-78
2023/02/20 02:33:49;;;;;;;18.50;11.65;;;;;;;;;;5056727;28;20119;-78
2023/02/20 02:36:38;;;;;;;15.25;10.27;;;;;;;;;;5059815;28;20037;-79
2023/02/20 02:39:28;;;;;;;17.80;11.18;;;;;;;;;;5056519;28;20464;-79
2023/02/20 02:42:14;;;;;;;16.05;10.88;;;;;;;;;;5056418;28;20017;-79
2023/02/20 02:45:09;;;;;;;15.02;9.80;;;;;;;;;;5054646;28;20099;-79
2023/02/20 02:48:13;;;;;;;17.05;10.32;;;;;;;;;;5073557;28;20499;-78
2023/02/20 02:51:01;;;;;;;15.13;9.88;;;;;;;;;;5068805;28;20021;-80
2023/02/20 02:54:06;;;;;;;17.75;10.07;;;;;;;;;;5057279;28;20075;-79
2023/02/20 02:56:52;;;;;;;15.88;10.05;;;;;;;;;;5054306;28;20024;-77
2023/02/20 02:59:38;;;;;;;12.82;8.82;;;;;;;;;;5054597;28;20047;-79
2023/02/20 03:02:24;;;;;;;14.85;9.40;;;;;;;;;;5055946;28;20017;-79
2023/02/20 03:05:13;;;;;;;18.10;9.38;;;;;;;;;;5054676;28;20466;-79
2023/02/20 03:07:59;;;;;;;12.55;8.50;;;;;;;;;;5056064;28;20024;-78
2023/02/20 03:10:44;;;;;;;13.52;8.23;;;;;;;;;;5055067;28;20021;-79
2023/02/20 03:16:55;;;;;;;13.38;8.02;;;;;;;;;;5054285;28;20021;-79
2023/02/20 03:19:40;;;;;;;13.45;7.60;;;;;;;;;;5055655;28;20163;-79
2023/02/20 03:22:31;;;;;;;12.68;7.78;;;;;;;;;;5054940;28;20029;-80
2023/02/20 03:25:22;;;;;;;11.18;6.88;;;;;;;;;;5055417;28;20029;-79
2023/02/20 03:28:10;;;;;;;10.85;7.45;;;;;;;;;;5054708;28;20464;-80
2023/02/20 03:31:07;;;;;;;9.98;6.68;;;;;;;;;;5054847;28;20107;-80
2023/02/20 03:43:32;;;;;;;8.63;5.75;;;;;;;;;;5053907;28;20025;-79
2023/02/20 03:46:21;;;;;;;8.70;5.82;;;;;;;;;;5055826;28;20056;-78
2023/02/20 03:49:10;;;;;;;8.90;6.30;;;;;;;;;;5055062;28;20134;-79
2023/02/20 03:51:55;;;;;;;9.05;6.00;;;;;;;;;;5055583;28;20412;-78
2023/02/20 03:54:41;;;;;;;9.98;6.07;;;;;;;;;;5055165;28;20025;-79
2023/02/20 03:57:29;;;;;;;10.25;6.50;;;;;;;;;;5055697;28;20031;-79
2023/02/20 04:00:17;;;;;;;7.85;5.65;;;;;;;;;;5055654;28;20094;-79
2023/02/20 04:03:06;;;;;;;8.90;6.40;;;;;;;;;;5055752;28;20021;-79
2023/02/20 04:05:54;;;;;;;10.90;6.38;;;;;;;;;;5054981;28;20009;-80
2023/02/20 04:08:43;;;;;;;10.57;7.45;;;;;;;;;;5054089;28;20108;-79
2023/02/20 04:11:29;;;;;;;11.85;7.07;;;;;;;;;;5055272;28;20020;-80
2023/02/20 04:14:17;;;;;;;11.98;7.85;;;;;;;;;;5054466;28;20017;-80
2023/02/20 04:17:06;;;;;;;11.38;7.72;;;;;;;;;;5059153;28;20021;-81
2023/02/20 04:19:52;;;;;;;13.52;8.85;;;;;;;;;;5058938;28;20017;-79
2023/02/20 04:22:39;;;;;;;12.75;7.90;;;;;;;;;;5057836;28;20112;-80
2023/02/20 04:25:43;;;;;;;12.35;8.50;;;;;;;;;;5059599;28;20021;-81
2023/02/20 04:28:29;;;;;;;15.38;8.50;;;;;;;;;;5058362;28;20032;-81
2023/02/20 04:31:16;;;;;;;12.23;8.20;;;;;;;;;;5058673;28;20041;-79
2023/02/20 04:34:02;;;;;;;13.07;8.73;;;;;;;;;;5059054;28;20041;-81
2023/02/20 04:36:47;;;;;;;13.88;9.18;;;;;;;;;;5058937;28;20053;-80
2023/02/20 04:39:33;;;;;;;13.20;8.82;;;;;;;;;;5058651;28;20028;-81
2023/02/20 04:42:19;;;;;;;14.95;9.30;;;;;;;;;;5058295;28;20046;-80
2023/02/20 04:45:04;;;;;;;18.02;8.00;;;;;;;;;;5058740;28;20017;-79
2023/02/20 04:47:50;;;;;;;12.40;4.72;;;;;;;;;;5058616;28;20445;-79
2023/02/20 04:50:36;;;;;;;14.95;4.32;;;;;;;;;;5058865;28;20108;-82
2023/02/20 04:53:21;;;;;;;9.10;3.65;;;;;;;;;;5058040;28;20117;-80
2023/02/20 04:56:07;;;;;;;10.77;4.00;;;;;;;;;;5057603;28;20032;-80
2023/02/20 04:58:52;;;;;;;9.88;3.72;;;;;;;;;;5058624;28;20017;-79
2023/02/20 05:01:38;;;;;;;9.90;3.75;;;;;;;;;;5057942;28;20028;-78
2023/02/20 05:04:23;;;;;;;12.10;4.10;;;;;;;;;;5057427;28;20025;-79
2023/02/20 05:07:09;;;;;;;8.50;3.63;;;;;;;;;;5057680;28;20036;-81
2023/02/20 05:09:56;;;;;;;8.98;4.18;;;;;;;;;;5058124;28;20133;-79
2023/02/20 05:12:41;;;;;;;9.57;3.90;;;;;;;;;;5057702;28;20387;-81
2023/02/20 05:15:28;;;;;;;9.13;3.60;;;;;;;;;;5057826;28;20025;-81
2023/02/20 05:18:22;;;;;;;10.40;3.38;;;;;;;;;;5058146;28;20025;-80
2023/02/20 05:24:16;;;;;;;48.78;6.53;;;;;;;;;;5058225;28;20013;-76
2023/02/20 05:27:02;;;;;;;8.88;3.53;;;;;;;;;;5056701;28;20400;-77
2023/02/20 05:29:52;;;;;;;66.45;8.10;;;;;;;;;;5057627;28;20063;-77
2023/02/20 05:32:38;;;;;;;10.55;3.70;;;;;;;;;;5057678;28;20091;-77
2023/02/20 05:35:23;;;;;;;8.25;3.58;;;;;;;;;;5057362;28;20122;-78
2023/02/20 05:38:09;;;;;;;13.00;3.60;;;;;;;;;;5043745;28;20029;-80
2023/02/20 05:40:54;;;;;;;19.42;4.45;;;;;;;;;;5056986;28;20130;-81
2023/02/20 05:43:40;;;;;;;11.43;4.47;;;;;;;;;;5056923;28;20461;-73
2023/02/20 05:46:26;;;;;;;23.27;4.63;;;;;;;;;;5057687;28;20442;-75
2023/02/20 05:49:12;;;;;;;12.15;4.70;;;;;;;;;;5057173;28;20378;-75
2023/02/20 05:51:57;;;;;;;14.63;4.95;;;;;;;;;;5056462;28;20036;-75
2023/02/20 05:54:44;;;;;;;6.88;3.40;;;;;;;;;;5056963;28;20108;-78
2023/02/20 05:57:30;;;;;;;15.15;5.60;;;;;;;;;;5057455;28;20071;-78
2023/02/20 06:00:16;;;;;;;14.95;5.00;;;;;;;;;;5056583;28;20120;-79
2023/02/20 06:03:04;;;;;;;9.07;4.43;;;;;;;;;;5056444;28;20021;-80
2023/02/20 06:05:50;;;;;;;17.20;3.90;;;;;;;;;;5057172;28;20025;-78
2023/02/20 06:08:36;;;;;;;11.65;4.28;;;;;;;;;;5056851;28;20021;-79
2023/02/20 06:11:21;;;;;;;12.35;4.78;;;;;;;;;;5056143;28;20068;-79
2023/02/20 06:14:07;;;;;;;17.85;5.25;;;;;;;;;;5056785;28;20361;-78
2023/02/20 06:16:53;;;;;;;12.18;4.72;;;;;;;;;;5056543;28;20120;-79
2023/02/20 06:19:38;;;;;;;12.65;5.13;;;;;;;;;;5055624;28;20049;-78
2023/02/20 06:22:24;;;;;;;16.52;5.40;;;;;;;;;;5056100;28;20044;-79
2023/02/20 06:25:09;;;;;;;8.90;4.20;;;;;;;;;;5056881;28;20021;-76
2023/02/20 06:27:55;;;;;;;16.48;5.75;;;;;;;;;;5056350;28;20025;-76
2023/02/20 06:30:41;;;;;;;12.68;5.32;;;;;;;;;;5056751;28;20041;-76
2023/02/20 06:33:26;;;;;;;11.20;5.25;;;;;;;;;;5055657;28;20033;-77
2023/02/20 06:36:19;;;;;;;19.05;6.07;;;;;;;;;;5055968;28;20099;-76
2023/02/20 06:39:05;;;;;;;21.52;6.97;;;;;;;;;;5055162;28;20021;-77
2023/02/20 06:41:51;;;;;;;12.00;4.85;;;;;;;;;;5056831;28;20520;-76
2023/02/20 06:44:36;;;;;;;14.73;4.65;;;;;;;;;;5056381;28;20035;-76
2023/02/20 06:47:22;;;;;;;16.65;4.97;;;;;;;;;;5055878;28;20361;-76
2023/02/20 06:50:08;;;;;;;16.40;5.50;;;;;;;;;;5057014;28;20437;-76
2023/02/20 06:52:53;;;;;;;13.13;4.28;;;;;;;;;;5056193;28;20021;-77
2023/02/20 06:55:39;;;;;;;14.15;5.25;;;;;;;;;;5055162;28;20449;-76
2023/02/20 06:58:24;;;;;;;21.65;5.53;;;;;;;;;;5055443;28;20021;-74
2023/02/20 07:01:10;;;;;;;18.75;5.90;;;;;;;;;;5056031;28;20063;-78
2023/02/20 07:03:57;;;;;;;14.70;4.78;;;;;;;;;;5056376;28;20017;-76
2023/02/20 07:06:42;;;;;;;10.73;4.80;;;;;;;;;;5056508;28;20024;-75
2023/02/20 07:09:28;;;;;;;14.02;4.30;;;;;;;;;;5056550;28;20017;-75
2023/02/20 07:12:13;;;;;;;12.82;4.00;;;;;;;;;;5060106;28;20028;-75
2023/02/20 07:14:59;;;;;;;9.30;3.90;;;;;;;;;;5057082;28;20358;-74
2023/02/20 07:17:45;;;;;;;8.10;4.10;;;;;;;;;;5058792;28;20052;-75
2023/02/20 07:20:30;;;;;;;7.70;3.90;;;;;;;;;;5055864;28;20021;-77
2023/02/20 07:23:16;;;;;;;11.07;4.35;;;;;;;;;;5069844;28;20012;-75
2023/02/20 07:26:02;;;;;;;9.35;4.40;;;;;;;;;;5070118;28;20025;-75
2023/02/20 07:28:47;;;;;;;10.60;4.55;;;;;;;;;;5069269;28;20081;-77
2023/02/20 07:31:33;;;;;;;10.23;3.97;;;;;;;;;;5056484;28;20441;-76
2023/02/20 07:34:18;;;;;;;9.13;4.53;;;;;;;;;;5055115;28;20429;-76
2023/02/20 07:37:04;;;;;;;8.07;3.85;;;;;;;;;;5055090;28;20108;-75
2023/02/20 07:39:50;;;;;;;6.55;3.45;;;;;;;;;;5055410;28;20017;-76
2023/02/20 07:42:35;;;;;;;8.20;4.00;;;;;;;;;;5054841;28;20441;-75
2023/02/20 07:45:21;;;;;;;5.75;3.58;;;;;;;;;;5055070;28;20086;-76
2023/02/20 07:48:06;;;;;;;11.35;4.60;;;;;;;;;;5056088;28;20437;-76
2023/02/20 07:50:52;;;;;;;8.38;4.10;;;;;;;;;;5054968;28;20036;-76
2023/02/20 07:53:38;;;;;;;9.60;4.10;;;;;;;;;;5055385;28;20104;-75
2023/02/20 07:56:23;;;;;;;12.20;4.40;;;;;;;;;;5055362;28;20067;-75
2023/02/20 07:59:09;;;;;;;11.95;4.97;;;;;;;;;;5055089;28;20061;-73
2023/02/20 08:01:54;;;;;;;10.27;5.00;;;;;;;;;;5055125;28;20058;-75
2023/02/20 08:04:40;;;;;;;61.10;30.77;;;;;;;;;;5061477;28;20029;-73
2023/02/20 08:07:26;;;;;;;33.50;18.85;;;;;;;;;;5071111;28;20048;-74
2023/02/20 08:10:12;;;;;;;17.20;6.47;;;;;;;;;;5054921;28;20040;-75
2023/02/20 08:12:57;;;;;;;12.73;5.00;;;;;;;;;;5053721;28;20029;-74
2023/02/20 08:15:47;;;;;;;10.93;4.88;;;;;;;;;;5054563;28;20112;-74
2023/02/20 08:18:32;;;;;;;12.85;4.63;;;;;;;;;;5055159;28;20342;-74
2023/02/20 08:21:21;;;;;;;7.35;3.95;;;;;;;;;;5055005;28;20025;-74
2023/02/20 08:24:07;;;;;;;8.68;4.10;;;;;;;;;;5055026;28;20020;-74
2023/02/20 08:26:52;;;;;;;8.25;4.60;;;;;;;;;;5054431;28;20036;-75
2023/02/20 08:29:38;;;;;;;16.05;4.55;;;;;;;;;;5055399;28;20021;-74
2023/02/20 08:32:24;;;;;;;9.02;4.10;;;;;;;;;;5053960;28;20128;-74
2023/02/20 08:35:09;;;;;;;8.88;4.10;;;;;;;;;;5053999;28;20501;-75
2023/02/20 08:37:55;;;;;;;7.68;3.80;;;;;;;;;;5054332;28;20024;-75
2023/02/20 08:40:40;;;;;;;7.75;3.83;;;;;;;;;;5054805;28;20108;-74
2023/02/20 08:43:26;;;;;;;8.82;3.65;;;;;;;;;;5054352;28;20032;-75
2023/02/20 08:46:11;;;;;;;6.95;4.05;;;;;;;;;;5054501;28;20017;-75
2023/02/20 08:48:57;;;;;;;20.52;4.88;;;;;;;;;;5054284;28;20017;-73
2023/02/20 08:51:44;;;;;;;10.38;4.20;;;;;;;;;;5053730;28;20013;-75
2023/02/20 08:54:29;;;;;;;5.65;3.17;;;;;;;;;;5055534;28;20036;-74
2023/02/20 08:57:16;;;;;;;14.02;4.80;;;;;;;;;;5053469;28;20064;-74
2023/02/20 09:00:04;;;;;;;13.88;5.45;;;;;;;;;;5054456;28;20028;-74
2023/02/20 09:02:49;;;;;;;11.25;4.65;;;;;;;;;;5056513;28;20038;-74
2023/02/20 09:05:35;;;;;;;12.50;5.32;;;;;;;;;;5058172;28;20021;-74
2023/02/20 09:08:21;;;;;;;11.80;4.45;;;;;;;;;;5057691;28;20445;-74
2023/02/20 09:11:06;;;;;;;9.90;3.92;;;;;;;;;;5057677;28;20033;-75
2023/02/20 09:13:52;;;;;;;8.40;3.95;;;;;;;;;;5057702;28;20048;-74
2023/02/20 09:16:40;;;;;;;11.07;3.95;;;;;;;;;;5056956;28;20025;-75
2023/02/20 09:19:26;;;;;;;7.03;3.92;;;;;;;;;;5057540;28;20025;-74
2023/02/20 09:22:12;;;;;;;10.88;3.40;;;;;;;;;;5056886;28;20024;-73
2023/02/20 09:24:57;;;;;;;5.65;3.42;;;;;;;;;;5057755;28;20025;-74
2023/02/20 09:27:43;;;;;;;8.25;3.60;;;;;;;;;;5056835;28;20143;-73
2023/02/20 09:30:28;;;;;;;8.10;3.53;;;;;;;;;;5057013;28;20045;-74
2023/02/20 09:33:14;;;;;;;6.63;3.42;;;;;;;;;;5056827;28;20041;-74
2023/02/20 09:36:00;;;;;;;5.22;3.13;;;;;;;;;;5057217;28;20445;-76
2023/02/20 09:38:45;;;;;;;6.65;3.00;;;;;;;;;;5058106;28;20045;-75
2023/02/20 09:41:40;;;;;;;9.95;3.85;;;;;;;;;;5056850;28;20114;-75
2023/02/20 09:44:35;;;;;;;6.68;3.65;;;;;;;;;;5057205;28;20025;-74
2023/02/20 09:47:29;;;;;;;9.35;3.92;;;;;;;;;;5056864;28;20029;-75
2023/02/20 09:50:19;;;;;;;6.70;3.20;;;;;;;;;;5057248;28;20032;-75
2023/02/20 09:53:10;;;;;;;7.32;3.88;;;;;;;;;;5057763;28;20032;-75
2023/02/20 09:55:58;;;;;;;12.52;3.75;;;;;;;;;;5056892;28;20056;-75
2023/02/20 09:58:46;;;;;;;7.22;3.50;;;;;;;;;;5056677;28;20409;-75
2023/02/20 10:01:33;;;;;;;7.40;3.65;;;;;;;;;;5057251;28;20098;-72
2023/02/20 10:04:21;;;;;;;19.50;4.25;;;;;;;;;;5058869;28;20104;-74
2023/02/20 10:07:12;;;;;;;6.25;3.20;;;;;;;;;;5058050;28;20039;-75
2023/02/20 10:09:58;;;;;;;6.32;2.80;;;;;;;;;;5056548;28;20043;-74
2023/02/20 10:12:49;;;;;;;7.22;3.28;;;;;;;;;;5057538;28;20442;-75
2023/02/20 10:15:44;;;;;;;5.95;2.92;;;;;;;;;;5056047;28;20407;-75
2023/02/20 10:18:30;;;;;;;5.78;2.60;;;;;;;;;;5056582;28;20047;-76
2023/02/20 10:21:19;;;;;;;5.57;2.67;;;;;;;;;;5056322;28;20048;-75
2023/02/20 10:24:30;;;;;;;7.80;2.95;;;;;;;;;;5057547;28;20116;-77
2023/02/20 10:27:40;;;;;;;10.80;2.95;;;;;;;;;;5057060;28;20021;-75
2023/02/20 10:30:43;;;;;;;7.30;3.40;;;;;;;;;;5054801;28;20028;-76
2023/02/20 10:33:34;;;;;;;11.85;5.90;;;;;;;;;;5055924;28;20535;-76
2023/02/20 10:36:26;;;;;;;6.45;3.40;;;;;;;;;;5055975;28;20033;-77
2023/02/20 10:39:14;;;;;;;13.57;3.92;;;;;;;;;;5056637;28;20017;-75
2023/02/20 10:41:59;;;;;;;6.18;3.95;;;;;;;;;;5057153;28;20035;-74
2023/02/20 10:44:49;;;;;;;5.13;3.10;;;;;;;;;;5055788;28;20021;-77
2023/02/20 10:47:41;;;;;;;7.07;3.08;;;;;;;;;;5056137;28;20398;-73
2023/02/20 10:50:34;;;;;;;5.35;3.00;;;;;;;;;;5056249;28;20051;-75
2023/02/20 10:53:25;;;;;;;6.60;2.60;;;;;;;;;;5054842;28;20021;-75
2023/02/20 10:56:14;;;;;;;4.85;2.50;;;;;;;;;;5055481;28;20025;-76
2023/02/20 10:59:16;;;;;;;6.15;2.20;;;;;;;;;;5055699;28;20013;-75
2023/02/20 11:02:04;;;;;;;3.72;2.40;;;;;;;;;;5056526;28;20025;-76
2023/02/20 11:05:08;;;;;;;3.92;2.30;;;;;;;;;;5056452;28;20394;-76
2023/02/20 11:07:53;;;;;;;3.38;2.15;;;;;;;;;;5056607;28;20059;-78
2023/02/20 11:10:39;;;;;;;5.40;2.38;;;;;;;;;;5056636;28;20029;-76
2023/02/20 11:13:25;;;;;;;6.95;2.70;;;;;;;;;;5055881;28;20035;-77
2023/02/20 11:16:18;;;;;;;8.13;2.40;;;;;;;;;;5054783;28;20020;-76
2023/02/20 11:19:24;;;;;;;3.38;2.50;;;;;;;;;;5056159;28;20345;-77
2023/02/20 11:22:09;;;;;;;8.93;2.90;;;;;;;;;;5056414;28;20032;-78
2023/02/20 11:25:12;;;;;;;10.13;2.65;;;;;;;;;;5055922;28;20017;-76
2023/02/20 11:28:01;;;;;;;5.38;3.03;;;;;;;;;;5056981;28;20017;-75
2023/02/20 11:30:48;;;;;;;3.70;2.38;;;;;;;;;;5057831;28;20020;-76
2023/02/20 11:33:36;;;;;;;4.97;2.78;;;;;;;;;;5055325;28;20052;-77
2023/02/20 11:36:24;;;;;;;6.43;2.90;;;;;;;;;;5054960;28;20021;-76
2023/02/20 11:39:16;;;;;;;5.38;3.25;;;;;;;;;;5056578;28;20029;-77
2023/02/20 11:42:14;;;;;;;5.57;3.15;;;;;;;;;;5055593;28;20060;-76
2023/02/20 11:45:26;;;;;;;4.35;2.80;;;;;;;;;;5055609;28;20116;-77
2023/02/20 11:48:11;;;;;;;4.32;2.88;;;;;;;;;;5056033;28;20025;-77
2023/02/20 11:50:57;;;;;;;4.97;3.38;;;;;;;;;;5054701;28;20032;-76
2023/02/20 11:53:43;;;;;;;8.60;3.50;;;;;;;;;;5055162;28;20021;-76
2023/02/20 11:56:28;;;;;;;4.40;3.05;;;;;;;;;;5054980;28;20028;-76
2023/02/20 11:59:26;;;;;;;6.22;3.20;;;;;;;;;;5054434;28;20395;-77
2023/02/20 12:02:22;;;;;;;5.90;3.53;;;;;;;;;;5054164;28;20116;-77
2023/02/20 12:05:12;;;;;;;5.13;3.10;;;;;;;;;;5055020;28;20025;-77
2023/02/20 12:07:59;;;;;;;9.32;3.55;;;;;;;;;;5054631;28;20035;-77
2023/02/20 12:10:45;;;;;;;43.08;6.43;;;;;;;;;;5054688;28;20017;-76
2023/02/20 12:13:35;;;;;;;22.90;4.10;;;;;;;;;;5055551;28;20028;-76
2023/02/20 12:16:24;;;;;;;8.00;3.58;;;;;;;;;;5054486;28;20107;-77
2023/02/20 12:19:18;;;;;;;6.28;3.58;;;;;;;;;;5055038;28;20024;-77
2023/02/20 12:22:10;;;;;;;4.97;3.30;;;;;;;;;;5054542;28;20021;-77
2023/02/20 12:25:14;;;;;;;7.47;3.67;;;;;;;;;;5053801;28;20027;-76
2023/02/20 12:28:23;;;;;;;6.97;3.15;;;;;;;;;;5054698;28;20028;-76
2023/02/20 12:31:09;;;;;;;5.05;3.13;;;;;;;;;;5055173;28;20028;-77
2023/02/20 12:34:13;;;;;;;7.80;3.58;;;;;;;;;;5054513;28;20041;-77
2023/02/20 12:37:12;;;;;;;8.85;4.00;;;;;;;;;;5056593;28;20118;-76
2023/02/20 12:40:00;;;;;;;17.48;6.10;;;;;;;;;;5059448;28;20017;-76
2023/02/20 12:42:52;;;;;;;9.07;5.45;;;;;;;;;;5068831;28;20021;-75
2023/02/20 12:45:42;;;;;;;14.55;7.40;;;;;;;;;;5067892;28;20120;-75
2023/02/20 12:48:28;;;;;;;12.20;5.43;;;;;;;;;;5064351;28;20107;-76
2023/02/20 12:51:13;;;;;;;9.68;5.32;;;;;;;;;;5059410;28;20025;-76
2023/02/20 12:54:06;;;;;;;10.18;4.85;;;;;;;;;;5071913;28;20021;-76
2023/02/20 12:57:11;;;;;;;10.05;4.32;;;;;;;;;;5065662;28;20013;-76
2023/02/20 13:00:14;;;;;;;5.47;3.97;;;;;;;;;;5069051;28;20021;-76
2023/02/20 13:03:06;;;;;;;7.93;4.20;;;;;;;;;;5060083;28;20036;-76
2023/02/20 13:05:52;;;;;;;5.53;4.00;;;;;;;;;;5072982;28;20016;-77
2023/02/20 13:08:55;;;;;;;10.45;6.00;;;;;;;;;;5071034;28;20452;-77
2023/02/20 13:11:42;;;;;;;11.15;6.05;;;;;;;;;;5057029;28;20028;-77
2023/02/20 13:14:43;;;;;;;12.90;5.30;;;;;;;;;;5057746;28;20481;-77
2023/02/20 13:17:32;;;;;;;8.40;4.53;;;;;;;;;;5056833;28;20028;-78
2023/02/20 13:20:22;;;;;;;10.35;4.30;;;;;;;;;;5056975;28;20013;-78
2023/02/20 13:23:17;;;;;;;8.30;4.65;;;;;;;;;;5057595;28;20441;-78
2023/02/20 13:26:23;;;;;;;6.90;4.40;;;;;;;;;;5057142;28;20036;-79
2023/02/20 13:29:13;;;;;;;14.50;4.95;;;;;;;;;;5059135;28;20074;-77
2023/02/20 13:32:00;;;;;;;8.50;4.38;;;;;;;;;;5062941;28;20049;-77
2023/02/20 13:34:46;;;;;;;8.52;4.75;;;;;;;;;;5065001;28;20093;-76
2023/02/20 13:37:38;;;;;;;18.83;5.80;;;;;;;;;;5058201;28;20425;-77
2023/02/20 13:40:27;;;;;;;7.35;4.45;;;;;;;;;;5057225;28;20075;-76
2023/02/20 13:43:39;;;;;;;7.68;4.32;;;;;;;;;;5056219;28;20028;-77
2023/02/20 13:46:29;;;;;;;12.02;4.75;;;;;;;;;;5056085;28;20334;-79
2023/02/20 13:49:34;;;;;;;7.55;4.82;;;;;;;;;;5055758;28;20032;-79
2023/02/20 13:52:35;;;;;;;9.85;4.75;;;;;;;;;;5057369;28;20015;-78
2023/02/20 13:55:25;;;;;;;9.13;4.53;;;;;;;;;;5056376;28;20017;-79
2023/02/20 13:58:14;;;;;;;6.88;4.40;;;;;;;;;;5056421;28;20044;-78
2023/02/20 14:01:00;;;;;;;7.25;4.25;;;;;;;;;;5056625;28;20024;-79
2023/02/20 14:03:58;;;;;;;6.90;4.40;;;;;;;;;;5055721;28;20024;-79
2023/02/20 14:06:50;;;;;;;9.38;4.60;;;;;;;;;;5056981;28;20036;-79
2023/02/20 14:09:36;;;;;;;9.13;4.53;;;;;;;;;;5056818;28;20021;-81
2023/02/20 14:12:22;;;;;;;7.90;4.68;;;;;;;;;;5056553;28;20070;-79
2023/02/20 14:15:07;;;;;;;9.25;4.90;;;;;;;;;;5055810;28;20028;-79
2023/02/20 14:17:53;;;;;;;10.23;4.85;;;;;;;;;;5055483;28;20025;-78
2023/02/20 14:20:39;;;;;;;8.68;4.78;;;;;;;;;;5056001;28;20024;-78
2023/02/20 14:23:28;;;;;;;9.00;4.60;;;;;;;;;;5056420;28;20017;-78
2023/02/20 14:26:47;;;;;;;6.78;4.55;;;;;;;;;;5056509;28;20021;-79
2023/02/20 14:29:33;;;;;;;8.85;5.00;;;;;;;;;;5030879;28;20426;-79
2023/02/20 14:32:19;;;;;;;6.72;4.57;;;;;;;;;;5056188;28;20114;-78
2023/02/20 14:35:10;;;;;;;7.97;4.85;;;;;;;;;;5056270;28;20013;-78
2023/02/20 14:38:08;;;;;;;11.70;6.80;;;;;;;;;;5055059;28;20044;-78
2023/02/20 14:40:54;;;;;;;12.27;5.30;;;;;;;;;;5055544;28;20078;-78
2023/02/20 14:43:40;;;;;;;7.40;4.55;;;;;;;;;;5055966;28;20028;-78
2023/02/20 14:46:27;;;;;;;10.18;6.75;;;;;;;;;;5055627;28;20374;-77
2023/02/20 14:49:14;;;;;;;8.88;5.05;;;;;;;;;;5055921;28;20099;-79
2023/02/20 14:52:09;;;;;;;8.57;4.80;;;;;;;;;;5055651;28;20024;-79
2023/02/20 14:54:56;;;;;;;9.80;4.80;;;;;;;;;;5055614;28;20083;-77
2023/02/20 14:57:42;;;;;;;8.48;4.40;;;;;;;;;;5054746;28;20021;-79
2023/02/20 15:00:35;;;;;;;7.63;4.65;;;;;;;;;;5054847;28;20048;-77
2023/02/20 15:03:22;;;;;;;7.90;4.85;;;;;;;;;;5054758;28;20017;-78
2023/02/20 15:06:13;;;;;;;6.80;4.35;;;;;;;;;;5055839;28;20028;-78
2023/02/20 15:08:59;;;;;;;9.27;5.20;;;;;;;;;;5055393;28;20039;-78
2023/02/20 15:11:56;;;;;;;7.60;4.75;;;;;;;;;;5055487;28;20017;-77
2023/02/20 15:14:42;;;;;;;11.85;5.32;;;;;;;;;;5055423;28;20024;-77
2023/02/20 15:17:29;;;;;;;14.63;5.68;;;;;;;;;;5055345;28;20432;-79
2023/02/20 15:20:37;;;;;;;10.00;4.72;;;;;;;;;;5054567;28;20435;-79
2023/02/20 15:23:26;;;;;;;13.25;4.97;;;;;;;;;;5054721;28;20021;-79
2023/02/20 15:26:32;;;;;;;12.20;5.53;;;;;;;;;;5055226;28;20045;-78
2023/02/20 15:29:22;;;;;;;25.13;5.60;;;;;;;;;;5054707;28;20032;-79
2023/02/20 15:32:18;;;;;;;13.68;5.32;;;;;;;;;;5054844;28;20137;-78
2023/02/20 15:35:04;;;;;;;15.13;5.90;;;;;;;;;;5055364;28;20084;-78
2023/02/20 15:37:52;;;;;;;21.65;6.97;;;;;;;;;;5053809;28;20461;-78
2023/02/20 15:40:40;;;;;;;15.15;6.82;;;;;;;;;;5054432;28;20425;-76
2023/02/20 15:43:26;;;;;;;14.77;6.90;;;;;;;;;;5055580;28;20021;-77
2023/02/20 15:46:13;;;;;;;16.55;7.82;;;;;;;;;;5054924;28;20416;-78
2023/02/20 15:48:58;;;;;;;20.10;8.60;;;;;;;;;;5055193;28;20039;-78
2023/02/20 15:51:48;;;;;;;16.58;8.52;;;;;;;;;;5054934;28;20100;-77
2023/02/20 15:54:33;;;;;;;16.85;8.32;;;;;;;;;;5057187;28;20017;-78
2023/02/20 15:57:19;;;;;;;15.75;8.70;;;;;;;;;;5055022;28;20025;-78
2023/02/20 16:00:05;;;;;;;29.77;10.20;;;;;;;;;;5054221;28;20025;-78
2023/02/20 16:02:52;;;;;;;21.90;11.30;;;;;;;;;;5054522;28;20013;-78
2023/02/20 16:05:37;;;;;;;24.40;12.15;;;;;;;;;;5053607;28;20020;-77
2023/02/20 16:08:24;;;;;;;29.80;12.27;;;;;;;;;;5053316;28;20044;-77
2023/02/20 16:11:19;;;;;;;28.52;12.85;;;;;;;;;;5056165;28;20365;-75
2023/02/20 16:14:05;;;;;;;46.35;25.63;;;;;;;;;;5044518;28;20028;-76
2023/02/20 16:16:51;;;;;;;21.58;11.52;;;;;;;;;;5057604;28;20025;-76
2023/02/20 16:19:37;;;;;;;26.70;12.77;;;;;;;;;;5058231;28;20446;-76
2023/02/20 16:22:23;;;;;;;28.02;13.95;;;;;;;;;;5057207;28;20032;-77
2023/02/20 16:25:10;;;;;;;28.48;13.95;;;;;;;;;;5057604;28;20024;-76
2023/02/20 16:27:56;;;;;;;29.40;13.20;;;;;;;;;;5057542;28;20028;-77
2023/02/20 16:30:44;;;;;;;29.75;13.82;;;;;;;;;;5057419;28;20338;-77
2023/02/20 16:33:29;;;;;;;29.10;13.50;;;;;;;;;;5058569;28;20076;-76
2023/02/20 16:36:15;;;;;;;26.95;14.75;;;;;;;;;;5056544;28;20467;-76
2023/02/20 16:39:01;;;;;;;32.55;16.05;;;;;;;;;;5056581;28;20025;-76
2023/02/20 16:41:46;;;;;;;27.50;15.43;;;;;;;;;;5057619;28;20427;-77
2023/02/20 16:44:37;;;;;;;26.15;15.77;;;;;;;;;;5057725;28;20021;-77
2023/02/20 16:47:24;;;;;;;28.60;15.75;;;;;;;;;;5058016;28;20060;-78
2023/02/20 16:50:13;;;;;;;31.13;15.15;;;;;;;;;;5057499;28;20036;-77
2023/02/20 16:53:04;;;;;;;23.42;14.18;;;;;;;;;;5057233;28;20029;-79
2023/02/20 16:55:50;;;;;;;29.58;15.52;;;;;;;;;;5056963;28;20017;-76